Time;durP1;ratioP1;P1;durP2;ratioP2;P2;SDS_P1;SDS_P2;PMS_P1;PMS_P2;Temp;Humidity;BMP_temperature;BMP_pressure;BME280_temperature;BME280_humidity;BME280_pressure;Samples;Min_cycle;Max_cycle;Signal;HPM_P1;HPM_P2
2022/09/30 00:01:34;;;;;;;2.65;2.05;;;13.30;99.90;;;;;;5051306;28;20214;-82
2022/09/30 00:04:03;;;;;;;2.33;2.13;;;13.30;99.90;;;;;;5051305;28;20248;-82
2022/09/30 00:06:33;;;;;;;2.58;2.38;;;13.30;99.90;;;;;;5051398;28;20235;-83
2022/09/30 00:09:02;;;;;;;2.10;2.00;;;13.30;99.90;;;;;;5050082;28;20221;-83
2022/09/30 00:11:34;;;;;;;1.90;1.70;;;13.30;99.90;;;;;;5050897;28;20213;-82
2022/09/30 00:14:03;;;;;;;2.20;2.10;;;13.30;99.90;;;;;;5051248;28;20216;-82
2022/09/30 00:16:34;;;;;;;2.80;2.20;;;13.30;99.90;;;;;;5050228;28;20260;-82
2022/09/30 00:19:04;;;;;;;1.98;1.88;;;13.30;99.90;;;;;;5050574;28;20291;-82
2022/09/30 00:21:33;;;;;;;2.60;2.20;;;13.30;99.90;;;;;;5050959;28;20209;-82
2022/09/30 00:24:03;;;;;;;2.20;2.10;;;13.20;99.90;;;;;;5050548;28;20214;-82
2022/09/30 00:26:33;;;;;;;2.60;2.40;;;13.30;99.90;;;;;;5050579;28;20229;-82
2022/09/30 00:29:02;;;;;;;2.40;2.28;;;13.30;99.90;;;;;;5050475;28;20217;-82
2022/09/30 00:31:33;;;;;;;10.45;3.22;;;13.20;99.90;;;;;;5050645;28;20218;-82
2022/09/30 00:34:07;;;;;;;2.55;2.35;;;13.20;99.90;;;;;;5051081;28;20223;-83
2022/09/30 00:36:38;;;;;;;5.80;2.47;;;13.20;99.90;;;;;;5050962;28;20271;-83
2022/09/30 00:39:08;;;;;;;2.45;2.35;;;13.10;99.90;;;;;;5050537;28;20261;-83
2022/09/30 00:41:38;;;;;;;3.15;2.60;;;13.20;99.90;;;;;;5050097;28;20209;-82
2022/09/30 00:44:44;;;;;;;2.47;2.25;;;13.10;99.90;;;;;;5050724;28;20217;-82
2022/09/30 00:47:30;;;;;;;2.55;2.35;;;13.00;99.90;;;;;;5050542;28;20212;-82
2022/09/30 00:50:02;;;;;;;2.33;2.22;;;13.00;99.90;;;;;;5050341;28;20213;-82
2022/09/30 00:52:32;;;;;;;3.15;2.70;;;12.90;99.90;;;;;;5050523;28;20214;-82
2022/09/30 00:55:04;;;;;;;2.70;2.50;;;12.90;99.90;;;;;;5050096;28;20226;-82
2022/09/30 00:57:34;;;;;;;2.40;2.20;;;12.90;99.90;;;;;;5050115;28;20221;-82
2022/09/30 01:00:04;;;;;;;3.38;2.50;;;12.90;99.90;;;;;;5050207;28;20210;-82
2022/09/30 01:02:33;;;;;;;2.40;2.20;;;12.90;99.90;;;;;;5049577;28;20209;-82
2022/09/30 01:05:01;;;;;;;3.00;2.70;;;12.90;99.90;;;;;;5049983;28;20248;-83
2022/09/30 01:07:30;;;;;;;5.53;2.67;;;13.00;99.90;;;;;;5050309;28;20210;-83
2022/09/30 01:09:58;;;;;;;6.03;3.17;;;13.00;99.90;;;;;;5050004;28;20213;-82
2022/09/30 01:12:27;;;;;;;2.35;2.17;;;13.00;99.90;;;;;;5049938;28;20209;-83
2022/09/30 01:15:00;;;;;;;2.78;2.50;;;13.00;99.90;;;;;;5049981;28;20264;-83
2022/09/30 01:17:37;;;;;;;2.90;2.70;;;13.00;99.90;;;;;;5050215;28;20210;-83
2022/09/30 01:20:43;;;;;;;2.83;2.60;;;12.90;99.90;;;;;;5051668;28;20205;-82
2022/09/30 01:23:44;;;;;;;2.45;2.25;;;13.00;99.90;;;;;;5056764;28;20209;-83
2022/09/30 01:26:48;;;;;;;2.85;2.63;;;13.00;99.90;;;;;;5031411;28;20236;-83
2022/09/30 01:29:44;;;;;;;7.80;3.08;;;12.90;99.90;;;;;;4983180;28;20204;-82
2022/09/30 01:32:24;;;;;;;3.10;2.83;;;13.00;99.90;;;;;;5054163;28;20208;-83
2022/09/30 01:34:58;;;;;;;3.28;3.05;;;13.00;99.90;;;;;;5056184;28;20202;-83
2022/09/30 01:37:39;;;;;;;4.05;3.65;;;13.00;99.90;;;;;;5056245;28;20252;-83
2022/09/30 01:40:21;;;;;;;5.03;3.03;;;13.00;99.90;;;;;;5055822;28;20206;-83
2022/09/30 01:42:56;;;;;;;7.10;3.90;;;13.00;99.90;;;;;;5055585;28;20223;-83
2022/09/30 01:45:34;;;;;;;3.90;3.50;;;13.00;99.90;;;;;;5056519;28;20233;-83
2022/09/30 01:48:09;;;;;;;4.43;4.03;;;13.00;99.90;;;;;;5055914;28;20212;-83
2022/09/30 01:50:45;;;;;;;3.45;3.25;;;13.00;99.90;;;;;;5055748;28;20202;-83
2022/09/30 01:53:22;;;;;;;4.47;4.03;;;13.00;99.90;;;;;;5055975;28;20213;-82
2022/09/30 01:55:57;;;;;;;3.75;3.45;;;13.00;99.90;;;;;;5055704;28;20229;-82
2022/09/30 01:58:33;;;;;;;4.30;3.97;;;12.90;99.90;;;;;;5055827;28;20221;-83
2022/09/30 02:01:05;;;;;;;4.85;4.35;;;12.90;99.90;;;;;;5055777;28;20205;-83
2022/09/30 02:03:39;;;;;;;4.93;4.45;;;12.90;99.90;;;;;;5055793;28;20213;-82
2022/09/30 02:06:11;;;;;;;7.40;4.88;;;12.90;99.90;;;;;;5055374;28;20229;-83
2022/09/30 02:08:45;;;;;;;4.82;3.83;;;12.80;99.90;;;;;;5055829;28;20202;-83
2022/09/30 02:11:17;;;;;;;4.63;4.22;;;12.80;99.90;;;;;;5056160;28;20204;-83
2022/09/30 02:13:51;;;;;;;8.80;4.85;;;12.80;99.90;;;;;;5055442;28;20209;-83
2022/09/30 02:16:24;;;;;;;4.72;4.35;;;12.70;99.90;;;;;;5055205;28;20252;-83
2022/09/30 02:18:58;;;;;;;5.35;4.95;;;12.70;99.90;;;;;;5054864;28;20222;-83
2022/09/30 02:21:32;;;;;;;6.45;5.82;;;12.70;99.90;;;;;;5055514;28;20205;-83
2022/09/30 02:24:06;;;;;;;6.63;6.00;;;12.70;99.90;;;;;;5055744;28;20209;-84
2022/09/30 02:26:39;;;;;;;10.18;5.40;;;12.60;99.90;;;;;;5055368;28;20229;-83
2022/09/30 02:29:12;;;;;;;5.60;5.10;;;12.60;99.90;;;;;;5055206;28;20228;-83
2022/09/30 02:31:43;;;;;;;6.05;5.55;;;12.50;99.90;;;;;;5054505;28;20293;-83
2022/09/30 02:34:16;;;;;;;6.57;5.97;;;12.50;99.90;;;;;;5055274;28;20218;-83
2022/09/30 02:36:48;;;;;;;5.60;5.20;;;12.50;99.90;;;;;;5055454;28;20240;-83
2022/09/30 02:39:25;;;;;;;7.38;5.93;;;12.40;99.90;;;;;;5054442;28;20221;-83
2022/09/30 02:41:59;;;;;;;6.22;4.95;;;12.40;99.90;;;;;;5054742;28;20209;-83
2022/09/30 02:44:28;;;;;;;5.38;4.97;;;12.40;99.90;;;;;;5054883;28;20216;-83
2022/09/30 02:47:02;;;;;;;6.90;6.25;;;12.40;99.90;;;;;;5054956;28;20256;-82
2022/09/30 02:49:39;;;;;;;8.25;6.10;;;12.40;99.90;;;;;;5054792;28;20202;-82
2022/09/30 02:52:15;;;;;;;6.72;6.13;;;12.40;99.90;;;;;;5054980;28;20220;-81
2022/09/30 02:54:50;;;;;;;9.70;7.18;;;12.30;99.90;;;;;;5055047;28;20210;-81
2022/09/30 02:57:26;;;;;;;6.80;6.20;;;12.30;99.90;;;;;;5054641;28;20209;-81
2022/09/30 02:59:55;;;;;;;6.80;6.20;;;12.30;99.90;;;;;;5054134;28;20216;-79
2022/09/30 03:02:23;;;;;;;7.45;6.78;;;12.30;99.90;;;;;;5054673;28;20214;-79
2022/09/30 03:04:53;;;;;;;7.68;6.97;;;12.20;99.90;;;;;;5054672;28;20212;-79
2022/09/30 03:07:21;;;;;;;6.60;6.05;;;12.30;99.90;;;;;;5054456;28;20210;-80
2022/09/30 03:09:49;;;;;;;7.50;6.90;;;12.20;99.90;;;;;;5054205;28;20210;-80
2022/09/30 03:12:28;;;;;;;7.25;6.55;;;12.20;99.90;;;;;;5053987;28;20210;-79
2022/09/30 03:15:18;;;;;;;9.60;8.40;;;12.20;99.90;;;;;;5054471;28;20225;-79
2022/09/30 03:18:09;;;;;;;8.02;7.40;;;12.20;99.90;;;;;;5054127;28;20214;-79
2022/09/30 03:20:48;;;;;;;7.70;6.93;;;12.20;99.90;;;;;;5053528;28;20222;-79
2022/09/30 03:23:35;;;;;;;7.60;7.00;;;12.20;99.90;;;;;;5054169;28;20204;-79
2022/09/30 03:26:15;;;;;;;8.95;7.88;;;12.20;99.90;;;;;;5053959;28;20222;-79
2022/09/30 03:28:52;;;;;;;10.90;8.88;;;12.20;99.90;;;;;;5053707;28;20214;-79
2022/09/30 03:31:27;;;;;;;9.57;8.70;;;12.10;99.90;;;;;;5054036;28;20226;-79
2022/09/30 03:34:05;;;;;;;8.48;7.72;;;12.20;99.90;;;;;;5053890;28;20268;-80
2022/09/30 03:36:40;;;;;;;8.60;7.82;;;12.20;99.90;;;;;;5053932;28;20217;-80
2022/09/30 03:39:17;;;;;;;10.02;8.88;;;12.20;99.90;;;;;;5053604;28;20225;-79
2022/09/30 03:41:53;;;;;;;10.40;9.10;;;12.20;99.90;;;;;;5053610;28;20236;-80
2022/09/30 03:44:26;;;;;;;9.82;8.82;;;12.20;99.90;;;;;;5053856;28;20209;-80
2022/09/30 03:46:59;;;;;;;10.43;9.52;;;12.20;99.90;;;;;;5053828;28;20236;-80
2022/09/30 03:49:31;;;;;;;9.65;8.75;;;12.20;99.90;;;;;;5053302;28;20213;-80
2022/09/30 03:52:06;;;;;;;10.27;9.27;;;12.20;99.90;;;;;;5053477;28;20213;-79
2022/09/30 03:54:37;;;;;;;9.18;8.38;;;12.20;99.90;;;;;;5053613;28;20204;-80
2022/09/30 03:57:05;;;;;;;17.33;10.18;;;12.20;99.90;;;;;;5053781;28;20206;-79
2022/09/30 03:59:33;;;;;;;11.18;9.70;;;12.10;99.90;;;;;;5052931;28;20232;-79
2022/09/30 04:02:03;;;;;;;11.45;8.27;;;12.10;99.90;;;;;;5053374;28;20217;-80
2022/09/30 04:04:31;;;;;;;9.05;8.25;;;12.10;99.90;;;;;;5053128;28;20221;-79
2022/09/30 04:07:01;;;;;;;10.57;9.38;;;12.00;99.90;;;;;;5053344;28;20214;-79
2022/09/30 04:09:29;;;;;;;9.30;8.48;;;12.00;99.90;;;;;;5053184;28;20209;-79
2022/09/30 04:11:57;;;;;;;12.05;10.85;;;12.00;99.90;;;;;;5053413;28;20289;-80
2022/09/30 04:14:25;;;;;;;13.90;9.13;;;12.00;99.90;;;;;;5053024;28;20210;-79
2022/09/30 04:16:54;;;;;;;10.10;9.13;;;11.90;99.90;;;;;;5052531;28;20230;-79
2022/09/30 04:19:22;;;;;;;11.10;10.07;;;11.90;99.90;;;;;;5052721;28;20244;-79
2022/09/30 04:21:51;;;;;;;10.23;9.43;;;11.90;99.90;;;;;;5053013;28;20221;-79
2022/09/30 04:24:21;;;;;;;11.27;10.23;;;11.90;99.90;;;;;;5053002;28;20206;-79
2022/09/30 04:26:50;;;;;;;11.43;10.40;;;11.80;99.90;;;;;;5052838;28;20242;-80
2022/09/30 04:29:18;;;;;;;15.55;11.13;;;11.80;99.90;;;;;;5053048;28;20202;-79
2022/09/30 04:31:47;;;;;;;11.60;10.48;;;11.80;99.90;;;;;;5052757;28;20205;-79
2022/09/30 04:34:15;;;;;;;12.88;11.38;;;11.70;99.90;;;;;;5052843;28;20282;-80
2022/09/30 04:36:43;;;;;;;12.07;10.82;;;11.70;99.90;;;;;;5052642;28;20252;-79
2022/09/30 04:39:11;;;;;;;12.27;11.13;;;11.60;99.90;;;;;;5052330;28;20210;-79
2022/09/30 04:41:41;;;;;;;14.35;10.52;;;11.60;99.90;;;;;;5052645;28;20206;-80
2022/09/30 04:44:10;;;;;;;12.57;11.45;;;11.60;99.90;;;;;;5052607;28;20228;-79
2022/09/30 04:46:38;;;;;;;11.85;10.75;;;11.60;99.90;;;;;;5052722;28;20233;-79
2022/09/30 04:49:07;;;;;;;12.43;11.23;;;11.60;99.90;;;;;;5052439;28;20217;-79
2022/09/30 04:51:37;;;;;;;12.20;10.95;;;11.60;99.90;;;;;;5052230;28;20210;-78
2022/09/30 04:54:05;;;;;;;11.75;10.73;;;11.70;99.90;;;;;;5052752;28;20216;-79
2022/09/30 04:56:33;;;;;;;11.65;10.55;;;11.60;99.90;;;;;;5052039;28;20225;-79
2022/09/30 04:59:03;;;;;;;11.25;10.25;;;11.60;99.90;;;;;;5052056;28;20210;-79
2022/09/30 05:01:31;;;;;;;19.98;10.85;;;11.60;99.90;;;;;;5052300;28;20230;-79
2022/09/30 05:03:59;;;;;;;12.95;11.60;;;11.60;99.90;;;;;;5052356;28;20221;-79
2022/09/30 05:06:27;;;;;;;13.07;11.23;;;11.60;99.90;;;;;;5052507;28;20230;-79
2022/09/30 05:08:55;;;;;;;12.57;11.40;;;11.60;99.90;;;;;;5052383;28;20213;-78
2022/09/30 05:11:24;;;;;;;12.20;11.07;;;11.60;99.90;;;;;;5052491;28;20211;-78
2022/09/30 05:13:52;;;;;;;11.98;10.90;;;11.50;99.90;;;;;;5052366;28;20206;-78
2022/09/30 05:16:22;;;;;;;14.45;12.10;;;11.60;99.90;;;;;;5052228;28;20222;-79
2022/09/30 05:18:51;;;;;;;16.35;13.50;;;11.50;99.90;;;;;;5052524;28;20267;-79
2022/09/30 05:21:20;;;;;;;17.95;12.32;;;11.60;99.90;;;;;;5052158;28;20221;-79
2022/09/30 05:23:48;;;;;;;11.95;10.75;;;11.60;99.90;;;;;;5052008;28;20217;-79
2022/09/30 05:26:17;;;;;;;12.30;10.95;;;11.60;99.90;;;;;;5052461;28;20234;-78
2022/09/30 05:28:45;;;;;;;11.07;9.98;;;11.60;99.90;;;;;;5051909;28;20218;-78
2022/09/30 05:31:13;;;;;;;10.75;9.85;;;11.50;99.90;;;;;;5052164;28;20194;-79
2022/09/30 05:33:43;;;;;;;12.60;10.68;;;11.50;99.90;;;;;;5051968;28;20205;-79
2022/09/30 05:36:14;;;;;;;17.45;9.23;;;11.50;99.90;;;;;;5051902;28;20234;-78
2022/09/30 05:38:42;;;;;;;12.27;8.68;;;11.40;99.90;;;;;;5052139;28;20201;-78
2022/09/30 05:41:13;;;;;;;9.15;8.35;;;11.30;99.90;;;;;;5051741;28;20218;-79
2022/09/30 05:43:44;;;;;;;8.63;7.93;;;11.30;99.90;;;;;;5051819;28;20244;-78
2022/09/30 05:46:12;;;;;;;12.50;8.02;;;11.30;99.90;;;;;;5052180;28;20225;-79
2022/09/30 05:48:41;;;;;;;7.90;7.20;;;11.30;99.90;;;;;;5051973;28;20206;-79
2022/09/30 05:51:11;;;;;;;8.48;7.78;;;11.30;99.90;;;;;;5052007;28;20209;-78
2022/09/30 05:53:40;;;;;;;6.85;6.22;;;11.30;99.90;;;;;;5052218;28;20233;-79
2022/09/30 05:56:09;;;;;;;7.65;7.05;;;11.30;99.90;;;;;;5051886;28;20231;-79
2022/09/30 05:58:39;;;;;;;7.85;7.15;;;11.30;99.90;;;;;;5051997;28;20205;-79
2022/09/30 06:01:09;;;;;;;9.88;8.98;;;11.30;99.90;;;;;;5051750;28;20222;-79
2022/09/30 06:03:41;;;;;;;11.13;8.73;;;11.40;99.90;;;;;;5051835;28;20217;-79
2022/09/30 06:06:12;;;;;;;9.77;8.57;;;11.40;99.90;;;;;;5052055;28;20230;-79
2022/09/30 06:08:45;;;;;;;8.40;7.03;;;11.40;99.90;;;;;;5054200;28;20218;-79
2022/09/30 06:11:15;;;;;;;5.22;4.75;;;11.40;99.90;;;;;;5055252;28;20280;-79
2022/09/30 06:13:46;;;;;;;6.25;5.40;;;11.30;99.90;;;;;;5055242;28;20212;-80
2022/09/30 06:16:14;;;;;;;5.45;5.00;;;11.40;99.90;;;;;;5054696;28;20233;-80
2022/09/30 06:18:42;;;;;;;7.45;6.63;;;11.40;99.90;;;;;;5055491;28;20300;-79
2022/09/30 06:21:16;;;;;;;5.50;5.00;;;11.40;99.90;;;;;;5055114;28;20226;-79
2022/09/30 06:23:45;;;;;;;4.20;3.90;;;11.40;99.90;;;;;;5055317;28;20231;-79
2022/09/30 06:26:14;;;;;;;4.60;4.18;;;11.40;99.90;;;;;;5055039;28;20233;-79
2022/09/30 06:28:44;;;;;;;6.78;4.20;;;11.40;99.90;;;;;;5054991;28;20224;-79
2022/09/30 06:31:13;;;;;;;3.53;3.33;;;11.30;99.90;;;;;;5055302;28;20293;-79
2022/09/30 06:33:42;;;;;;;3.28;3.08;;;11.30;99.90;;;;;;5055445;28;20202;-79
2022/09/30 06:36:12;;;;;;;4.03;3.75;;;11.30;99.90;;;;;;5055443;28;20279;-79
2022/09/30 06:38:40;;;;;;;4.40;4.00;;;11.30;99.90;;;;;;5054720;28;20212;-79
2022/09/30 06:41:09;;;;;;;3.92;3.63;;;11.30;99.90;;;;;;5054471;28;20232;-79
2022/09/30 06:43:40;;;;;;;3.25;3.05;;;11.30;99.90;;;;;;5054834;28;20220;-79
2022/09/30 06:46:27;;;;;;;4.00;3.70;;;11.30;99.90;;;;;;5054912;28;20281;-79
2022/09/30 06:48:59;;;;;;;4.00;3.70;;;11.30;99.90;;;;;;5054513;28;20210;-79
2022/09/30 06:51:50;;;;;;;4.82;4.38;;;11.30;99.90;;;;;;5055083;28;20232;-80
2022/09/30 06:54:19;;;;;;;4.07;3.75;;;11.20;99.90;;;;;;5054511;28;20289;-80
2022/09/30 06:56:48;;;;;;;5.00;4.60;;;11.20;99.90;;;;;;5054442;28;20226;-79
2022/09/30 06:59:16;;;;;;;4.57;4.18;;;11.20;99.90;;;;;;5054724;28;20205;-79
2022/09/30 07:01:45;;;;;;;4.95;4.55;;;11.20;99.90;;;;;;5054357;28;20218;-79
2022/09/30 07:04:15;;;;;;;4.45;4.13;;;11.20;99.90;;;;;;5054716;28;20228;-79
2022/09/30 07:06:47;;;;;;;4.60;4.28;;;11.30;99.90;;;;;;5054325;28;20236;-79
2022/09/30 07:09:20;;;;;;;5.38;4.88;;;11.30;99.90;;;;;;5054091;28;20208;-79
2022/09/30 07:11:49;;;;;;;8.90;5.80;;;11.30;99.90;;;;;;5054381;28;20262;-79
2022/09/30 07:14:17;;;;;;;5.32;4.93;;;11.30;99.90;;;;;;5054254;28;20270;-79
2022/09/30 07:16:45;;;;;;;6.55;5.95;;;11.20;99.90;;;;;;5054439;28;20243;-79
2022/09/30 07:19:16;;;;;;;5.63;5.20;;;11.30;99.90;;;;;;5054017;28;20217;-79
2022/09/30 07:21:44;;;;;;;6.05;5.53;;;11.20;99.90;;;;;;5054240;28;20229;-79
2022/09/30 07:24:12;;;;;;;7.20;6.57;;;11.20;99.90;;;;;;5054202;28;20206;-79
2022/09/30 07:26:47;;;;;;;6.45;5.85;;;11.20;99.90;;;;;;5054031;28;20229;-79
2022/09/30 07:29:20;;;;;;;6.95;6.35;;;11.30;99.90;;;;;;5053949;28;20216;-79
2022/09/30 07:31:50;;;;;;;7.15;6.28;;;11.30;99.90;;;;;;5054298;28;20206;-79
2022/09/30 07:34:18;;;;;;;7.38;6.78;;;11.30;99.90;;;;;;5054126;28;20213;-79
2022/09/30 07:36:48;;;;;;;8.45;7.65;;;11.30;99.90;;;;;;5053636;28;20228;-78
2022/09/30 07:39:18;;;;;;;7.32;6.60;;;11.30;99.90;;;;;;5053741;28;20217;-80
2022/09/30 07:41:49;;;;;;;6.93;6.38;;;11.30;99.90;;;;;;5053373;28;20226;-79
2022/09/30 07:44:18;;;;;;;7.32;6.72;;;11.30;99.90;;;;;;5053805;28;20205;-80
2022/09/30 07:46:46;;;;;;;7.32;6.72;;;11.40;99.90;;;;;;5053382;28;20230;-80
2022/09/30 07:49:23;;;;;;;7.57;6.40;;;11.40;99.90;;;;;;5053218;28;20237;-80
2022/09/30 07:51:58;;;;;;;7.88;6.70;;;11.40;99.90;;;;;;5053946;28;20211;-79
2022/09/30 07:54:30;;;;;;;8.02;7.30;;;11.40;99.90;;;;;;5053930;28;20212;-79
2022/09/30 07:57:04;;;;;;;7.60;6.43;;;11.50;99.90;;;;;;5053582;28;20225;-80
2022/09/30 07:59:41;;;;;;;8.07;7.30;;;11.60;99.90;;;;;;5053243;28;20213;-80
2022/09/30 08:02:17;;;;;;;9.07;8.18;;;11.70;99.90;;;;;;5053530;28;20232;-78
2022/09/30 08:04:50;;;;;;;6.80;6.25;;;11.70;99.90;;;;;;5052812;28;20215;-79
2022/09/30 08:07:24;;;;;;;7.55;6.85;;;11.80;99.90;;;;;;5053127;28;20210;-79
2022/09/30 08:09:57;;;;;;;10.20;7.40;;;11.90;99.90;;;;;;5052923;28;20212;-80
2022/09/30 08:12:30;;;;;;;8.57;7.78;;;12.10;99.90;;;;;;5053600;28;20206;-80
2022/09/30 08:15:04;;;;;;;8.32;7.63;;;12.20;99.90;;;;;;5052427;28;20250;-79
2022/09/30 08:17:37;;;;;;;8.10;7.45;;;12.30;99.90;;;;;;5053141;28;20241;-79
2022/09/30 08:20:07;;;;;;;7.88;7.13;;;12.50;99.90;;;;;;5052970;28;20215;-80
2022/09/30 08:22:42;;;;;;;8.18;7.47;;;12.60;99.90;;;;;;5052769;28;20217;-79
2022/09/30 08:25:13;;;;;;;11.98;7.90;;;12.70;99.90;;;;;;5052423;28;20229;-79
2022/09/30 08:27:48;;;;;;;7.97;7.28;;;12.80;99.90;;;;;;5052681;28;20252;-80
2022/09/30 08:30:17;;;;;;;8.43;7.18;;;12.70;99.90;;;;;;5051983;28;20209;-81
2022/09/30 08:32:48;;;;;;;8.45;7.65;;;12.60;99.90;;;;;;5052611;28;20229;-80
2022/09/30 08:35:17;;;;;;;7.50;6.70;;;12.60;99.90;;;;;;5052378;28;20226;-80
2022/09/30 08:37:50;;;;;;;7.75;7.10;;;12.60;99.90;;;;;;5052858;28;20206;-80
2022/09/30 08:40:23;;;;;;;6.72;6.20;;;12.60;99.90;;;;;;5052422;28;20205;-79
2022/09/30 08:43:09;;;;;;;7.35;6.65;;;12.50;99.90;;;;;;5052308;28;20226;-81
2022/09/30 08:45:48;;;;;;;7.70;7.10;;;12.40;99.90;;;;;;5067452;22;20228;-80
2022/09/30 08:48:35;;;;;;;7.47;6.78;;;12.40;99.90;;;;;;5072579;28;20212;-80
2022/09/30 08:52:17;;;;;;;;;;;;;;;;;;;;;
2022/09/30 08:55:28;;;;;;;7.47;6.78;;;12.40;99.90;;;;;;5016693;28;20210;-80
2022/09/30 08:58:26;;;;;;;8.32;7.00;;;12.40;99.90;;;;;;5030814;28;20202;-80
2022/09/30 09:04:36;;;;;;;6.57;5.95;;;12.40;99.90;;;;;;4971274;28;20200;-80
2022/09/30 09:07:27;;;;;;;5.57;5.13;;;12.40;99.90;;;;;;5066862;28;20196;-80
2022/09/30 09:11:01;;;;;;;6.40;5.15;;;12.60;99.90;;;;;;5072555;28;20278;-81
2022/09/30 09:13:51;;;;;;;6.60;5.80;;;12.70;99.90;;;;;;5070052;28;20205;-80
2022/09/30 09:16:28;;;;;;;10.25;5.18;;;12.90;99.90;;;;;;5072757;28;20224;-80
2022/09/30 09:19:28;;;;;;;5.47;5.03;;;13.20;99.90;;;;;;5072310;28;20196;-80
2022/09/30 09:23:05;;;;;;;5.55;5.15;;;13.40;99.90;;;;;;5072125;28;20228;-80
2022/09/30 09:25:48;;;;;;;6.75;4.88;;;13.50;99.90;;;;;;4974435;22;20225;-80
2022/09/30 09:28:37;;;;;;;5.47;4.65;;;13.60;99.90;;;;;;5032907;28;20209;-80
2022/09/30 09:31:15;;;;;;;5.07;4.68;;;13.70;99.90;;;;;;5032281;28;20216;-80
2022/09/30 09:40:56;;;;;;;4.85;4.38;;;14.20;99.90;;;;;;5012362;28;20217;-80
2022/09/30 09:43:34;;;;;;;4.68;4.28;;;14.20;99.90;;;;;;5016174;28;20234;-81
2022/09/30 09:46:15;;;;;;;4.40;4.10;;;14.10;99.90;;;;;;5016179;28;20230;-81
2022/09/30 09:48:43;;;;;;;4.60;4.03;;;14.00;99.90;;;;;;5015919;28;20219;-81
2022/09/30 09:51:22;;;;;;;6.07;4.47;;;14.00;99.90;;;;;;5016331;28;20234;-81
2022/09/30 09:53:57;;;;;;;4.68;4.28;;;14.00;99.90;;;;;;5016069;28;20242;-81
2022/09/30 09:56:29;;;;;;;6.60;3.78;;;14.10;99.90;;;;;;5016135;28;20258;-81
2022/09/30 09:59:16;;;;;;;4.13;3.78;;;14.20;99.90;;;;;;5015908;28;20210;-81
2022/09/30 10:01:51;;;;;;;5.13;4.63;;;14.30;99.90;;;;;;5016345;28;20286;-81
2022/09/30 10:04:22;;;;;;;4.95;4.45;;;14.50;99.90;;;;;;5015886;28;20261;-81
2022/09/30 10:06:53;;;;;;;5.88;4.90;;;14.80;99.90;;;;;;5015621;28;20258;-81
2022/09/30 10:09:33;;;;;;;3.97;3.58;;;15.00;99.90;;;;;;5015719;28;20203;-81
2022/09/30 10:12:28;;;;;;;4.72;4.15;;;15.20;99.90;;;;;;5015873;28;20218;-81
2022/09/30 10:15:04;;;;;;;15.75;4.63;;;15.20;99.90;;;;;;5015838;28;20234;-81
2022/09/30 10:17:38;;;;;;;3.88;3.50;;;15.30;99.90;;;;;;5015674;28;20206;-81
2022/09/30 10:20:17;;;;;;;4.53;4.13;;;15.40;99.90;;;;;;5015894;28;20210;-81
2022/09/30 10:22:45;;;;;;;13.10;4.18;;;15.40;99.90;;;;;;5015837;28;20231;-81
2022/09/30 10:25:25;;;;;;;4.55;4.15;;;15.20;99.90;;;;;;5015635;28;20238;-81
2022/09/30 10:27:56;;;;;;;4.70;4.30;;;14.80;99.90;;;;;;5015722;28;20215;-81
2022/09/30 10:30:47;;;;;;;5.28;4.78;;;14.50;99.90;;;;;;5015559;28;20214;-81
2022/09/30 10:33:31;;;;;;;5.88;5.38;;;14.20;99.90;;;;;;5015345;28;20207;-81
2022/09/30 10:36:07;;;;;;;4.93;4.50;;;14.00;99.90;;;;;;5015601;28;20254;-81
2022/09/30 10:38:37;;;;;;;6.63;5.88;;;14.00;99.90;;;;;;5015236;28;20214;-81
2022/09/30 10:41:06;;;;;;;5.13;4.63;;;14.00;99.90;;;;;;5015418;28;20277;-81
2022/09/30 10:43:44;;;;;;;6.03;5.47;;;14.10;99.90;;;;;;5015341;28;20277;-81
2022/09/30 10:46:23;;;;;;;6.00;5.45;;;14.10;99.90;;;;;;5014858;28;20227;-81
2022/09/30 10:48:57;;;;;;;6.00;4.63;;;14.00;99.90;;;;;;5014764;28;20214;-81
2022/09/30 10:51:35;;;;;;;7.53;5.65;;;14.00;99.90;;;;;;5015018;28;20207;-81
2022/09/30 10:54:05;;;;;;;6.30;4.63;;;14.00;99.90;;;;;;5014667;28;20207;-81
2022/09/30 10:56:47;;;;;;;6.32;4.70;;;14.00;99.90;;;;;;5015606;28;20235;-81
2022/09/30 10:59:34;;;;;;;5.35;4.85;;;14.10;99.90;;;;;;5014603;28;20249;-82
2022/09/30 11:02:21;;;;;;;5.57;4.55;;;14.30;99.90;;;;;;5015253;28;20203;-81
2022/09/30 11:05:02;;;;;;;4.07;3.78;;;14.40;99.90;;;;;;5014248;28;20238;-81
2022/09/30 11:07:41;;;;;;;5.13;4.60;;;14.40;99.90;;;;;;5014833;28;20221;-82
2022/09/30 11:10:33;;;;;;;4.07;3.47;;;14.50;99.90;;;;;;5015105;28;20214;-82
2022/09/30 11:13:08;;;;;;;11.30;4.32;;;14.70;99.90;;;;;;5014489;28;20234;-81
2022/09/30 11:15:45;;;;;;;4.55;4.15;;;14.90;99.90;;;;;;5014531;28;20223;-81
2022/09/30 11:18:19;;;;;;;11.48;5.70;;;14.70;99.90;;;;;;5014713;28;20241;-81
2022/09/30 11:21:00;;;;;;;6.07;5.32;;;14.70;99.90;;;;;;5014646;28;20215;-81
2022/09/30 11:23:37;;;;;;;5.50;5.00;;;14.60;99.90;;;;;;5014860;28;20223;-81
2022/09/30 11:26:20;;;;;;;5.90;5.20;;;14.60;99.90;;;;;;5014074;28;20231;-82
2022/09/30 11:29:02;;;;;;;5.20;4.80;;;14.60;99.90;;;;;;5013700;28;20367;-82
2022/09/30 11:31:40;;;;;;;5.50;5.00;;;14.80;99.90;;;;;;5014117;28;20207;-82
2022/09/30 11:34:22;;;;;;;4.22;3.83;;;14.90;99.90;;;;;;5014261;28;20233;-82
2022/09/30 11:37:03;;;;;;;3.88;3.47;;;15.00;99.90;;;;;;5014221;28;20231;-82
2022/09/30 11:39:45;;;;;;;4.38;3.70;;;15.20;99.90;;;;;;5013924;28;20207;-82
2022/09/30 11:42:21;;;;;;;5.15;4.35;;;15.40;99.90;;;;;;5014378;28;20215;-82
2022/09/30 11:45:00;;;;;;;3.60;3.40;;;15.50;99.90;;;;;;5013727;28;20231;-82
2022/09/30 11:47:45;;;;;;;5.75;3.88;;;15.70;99.90;;;;;;5013904;28;20206;-82
2022/09/30 11:50:29;;;;;;;3.80;3.50;;;15.90;99.90;;;;;;5013850;28;20226;-82
2022/09/30 11:53:09;;;;;;;3.50;3.20;;;16.10;99.90;;;;;;5013985;28;20211;-82
2022/09/30 11:55:56;;;;;;;4.07;3.38;;;16.20;99.90;;;;;;5013777;28;20257;-82
2022/09/30 11:58:32;;;;;;;3.63;3.35;;;16.30;99.90;;;;;;5013918;28;20207;-82
2022/09/30 12:01:21;;;;;;;2.45;2.35;;;16.30;99.90;;;;;;5014682;28;20378;-82
2022/09/30 12:03:59;;;;;;;3.03;2.45;;;16.10;99.90;;;;;;5013408;28;20246;-82
2022/09/30 12:06:39;;;;;;;3.10;2.75;;;16.20;99.90;;;;;;5013085;28;20254;-82
2022/09/30 12:09:18;;;;;;;4.13;2.08;;;16.20;99.90;;;;;;5014051;28;20217;-82
2022/09/30 12:11:59;;;;;;;2.63;2.42;;;16.30;99.90;;;;;;5013751;28;20211;-82
2022/09/30 12:14:37;;;;;;;2.47;2.28;;;16.30;99.90;;;;;;5014494;28;20203;-82
2022/09/30 12:17:18;;;;;;;2.58;2.38;;;16.30;99.90;;;;;;5015221;28;20211;-82
2022/09/30 12:19:52;;;;;;;3.15;2.85;;;16.60;99.90;;;;;;5015206;28;20203;-81
2022/09/30 12:22:30;;;;;;;2.78;2.58;;;16.70;99.90;;;;;;5015359;28;20282;-81
2022/09/30 12:25:14;;;;;;;2.50;2.30;;;16.50;99.90;;;;;;5015222;28;20249;-81
2022/09/30 12:27:51;;;;;;;3.45;2.30;;;16.30;99.90;;;;;;5014738;28;20286;-81
2022/09/30 12:30:22;;;;;;;3.17;2.83;;;16.30;99.90;;;;;;5014487;28;20211;-81
2022/09/30 12:33:18;;;;;;;3.03;2.75;;;16.40;99.90;;;;;;5015232;28;20259;-81
2022/09/30 12:36:09;;;;;;;3.03;2.80;;;16.40;99.90;;;;;;5006363;28;20310;-82
2022/09/30 12:39:02;;;;;;;2.78;2.55;;;16.60;99.90;;;;;;5014653;28;20203;-81
2022/09/30 12:41:56;;;;;;;3.08;2.42;;;17.30;99.90;;;;;;4997726;28;20217;-81
2022/09/30 12:44:51;;;;;;;2.78;2.25;;;18.20;99.90;;;;;;5013879;28;20231;-81
2022/09/30 12:47:31;;;;;;;2.33;1.95;;;18.50;99.90;;;;;;5014065;28;20280;-81
2022/09/30 12:50:05;;;;;;;1.60;1.50;;;18.90;99.90;;;;;;5012674;28;20266;-81
2022/09/30 12:52:35;;;;;;;1.77;1.67;;;19.30;99.90;;;;;;5013048;28;20211;-81
2022/09/30 12:55:13;;;;;;;1.92;1.77;;;19.70;99.90;;;;;;5012886;28;20234;-81
2022/09/30 12:57:49;;;;;;;1.83;1.58;;;19.80;99.90;;;;;;5013026;28;20241;-82
2022/09/30 13:00:20;;;;;;;1.95;1.77;;;20.30;99.90;;;;;;5013144;28;20206;-81
2022/09/30 13:02:54;;;;;;;1.67;1.58;;;20.60;99.90;;;;;;5012846;28;20206;-81
2022/09/30 13:05:51;;;;;;;2.28;2.08;;;20.30;99.90;;;;;;5012731;28;20231;-81
2022/09/30 13:08:41;;;;;;;1.80;1.70;;;19.70;99.90;;;;;;5013031;28;20221;-82
2022/09/30 13:11:35;;;;;;;1.02;1.02;;;19.40;99.90;;;;;;5013076;28;20290;-81
2022/09/30 13:14:33;;;;;;;1.40;1.30;;;19.10;99.90;;;;;;5013004;28;20210;-81
2022/09/30 13:17:19;;;;;;;1.83;1.33;;;19.00;99.90;;;;;;5014381;28;20222;-81
2022/09/30 13:19:52;;;;;;;1.60;1.50;;;18.90;99.90;;;;;;5016982;28;20215;-81
2022/09/30 13:23:00;;;;;;;1.20;1.17;;;19.00;99.90;;;;;;5016779;28;20286;-81
2022/09/30 13:25:55;;;;;;;1.10;1.10;;;19.30;99.90;;;;;;5016456;28;20250;-81
2022/09/30 13:28:30;;;;;;;1.50;1.40;;;19.30;99.90;;;;;;5016749;28;20279;-81
2022/09/30 13:31:19;;;;;;;1.70;1.60;;;19.50;99.90;;;;;;5016803;28;20206;-81
2022/09/30 13:34:09;;;;;;;1.58;1.50;;;19.60;99.90;;;;;;5016663;28;20223;-81
2022/09/30 13:36:45;;;;;;;1.42;1.20;;;19.60;99.90;;;;;;5016844;28;20230;-81
2022/09/30 13:39:20;;;;;;;1.50;1.40;;;19.50;99.90;;;;;;5016304;28;20284;-81
2022/09/30 13:42:10;;;;;;;1.92;1.73;;;19.30;99.90;;;;;;5016162;28;20218;-81